Time;durP1;ratioP1;P1;durP2;ratioP2;P2;SDS_P1;SDS_P2;PMS_P1;PMS_P2;Temp;Humidity;BMP_temperature;BMP_pressure;BME280_temperature;BME280_humidity;BME280_pressure;Samples;Min_cycle;Max_cycle;Signal;HPM_P1;HPM_P2
2021/08/23 00:00:53;;;;;;;25.73;19.47;;;18.20;99.90;;;;;;5058516;28;20183;-79
2021/08/23 00:03:18;;;;;;;27.87;21.10;;;18.20;99.90;;;;;;5076142;28;20179;-76
2021/08/23 00:05:44;;;;;;;31.73;20.33;;;18.20;99.90;;;;;;5076234;28;20168;-80
2021/08/23 00:08:09;;;;;;;27.17;20.00;;;18.10;99.90;;;;;;5075982;28;20676;-76
2021/08/23 00:10:35;;;;;;;30.40;19.70;;;18.10;99.90;;;;;;5076117;28;20277;-76
2021/08/23 00:13:01;;;;;;;29.63;20.33;;;18.20;99.90;;;;;;5076083;28;20182;-79
2021/08/23 00:15:26;;;;;;;27.53;20.20;;;18.10;99.90;;;;;;5076282;28;20532;-76
2021/08/23 00:17:52;;;;;;;27.17;18.93;;;18.10;99.90;;;;;;5096607;28;20156;-78
2021/08/23 00:20:21;;;;;;;31.07;19.93;;;18.10;99.90;;;;;;5101378;28;20164;-75
2021/08/23 00:22:48;;;;;;;27.37;19.63;;;18.00;99.90;;;;;;5100837;28;20216;-76
2021/08/23 00:25:18;;;;;;;26.07;19.10;;;18.00;99.90;;;;;;5074779;28;20196;-76
2021/08/23 00:27:44;;;;;;;27.13;19.67;;;18.00;99.90;;;;;;5085104;28;20280;-76
2021/08/23 00:30:18;;;;;;;26.13;19.43;;;18.00;99.90;;;;;;5083851;28;20521;-76
2021/08/23 00:32:47;;;;;;;29.17;19.67;;;18.00;99.90;;;;;;5076277;28;20164;-76
2021/08/23 00:35:16;;;;;;;25.17;19.60;;;18.00;99.90;;;;;;5076248;28;20226;-76
2021/08/23 00:37:41;;;;;;;27.63;19.80;;;18.10;99.90;;;;;;5075594;28;20201;-79
2021/08/23 00:40:07;;;;;;;26.00;19.80;;;18.10;99.90;;;;;;5075795;28;20204;-80
2021/08/23 00:42:33;;;;;;;24.93;18.33;;;18.20;99.90;;;;;;5075684;28;20203;-79
2021/08/23 00:44:59;;;;;;;27.90;18.23;;;18.20;99.90;;;;;;5075550;28;20198;-77
2021/08/23 00:47:24;;;;;;;29.70;18.93;;;18.20;99.90;;;;;;5075756;28;20195;-79
2021/08/23 00:49:50;;;;;;;27.87;18.90;;;18.10;99.90;;;;;;5075277;28;20264;-78
2021/08/23 00:52:16;;;;;;;29.53;18.03;;;18.10;99.90;;;;;;5075109;28;20172;-75
2021/08/23 00:54:42;;;;;;;24.53;17.97;;;18.20;99.90;;;;;;5075158;28;20253;-79
2021/08/23 00:57:07;;;;;;;28.43;18.30;;;18.20;99.90;;;;;;5075332;28;20227;-80
2021/08/23 00:59:37;;;;;;;24.37;17.07;;;18.20;99.90;;;;;;5074761;28;20176;-77
2021/08/23 01:02:05;;;;;;;26.83;17.83;;;18.20;99.90;;;;;;5057077;28;20640;-81
2021/08/23 01:04:58;;;;;;;24.80;17.57;;;18.20;99.90;;;;;;5074897;28;20169;-81
2021/08/23 01:07:26;;;;;;;29.80;19.03;;;18.10;99.90;;;;;;5074954;28;20183;-78
2021/08/23 01:09:57;;;;;;;23.43;18.57;;;18.20;99.90;;;;;;5074785;28;20204;-81
2021/08/23 01:12:26;;;;;;;30.27;18.17;;;18.20;99.90;;;;;;5074961;28;20160;-80
2021/08/23 01:14:51;;;;;;;26.80;18.70;;;18.20;99.90;;;;;;5074970;28;20175;-79
2021/08/23 01:17:17;;;;;;;26.37;18.90;;;18.30;99.90;;;;;;5075202;28;20165;-77
2021/08/23 01:19:47;;;;;;;24.93;18.27;;;18.20;99.90;;;;;;5075121;28;20171;-81
2021/08/23 01:22:13;;;;;;;28.30;19.77;;;18.20;99.90;;;;;;5074706;28;20535;-77
2021/08/23 01:24:41;;;;;;;29.10;19.33;;;18.30;99.90;;;;;;5074713;28;20193;-77
2021/08/23 01:27:10;;;;;;;27.97;18.30;;;18.20;99.90;;;;;;5074906;28;20241;-77
2021/08/23 01:29:52;;;;;;;27.97;17.47;;;18.20;99.90;;;;;;5074614;28;20222;-80
2021/08/23 01:32:22;;;;;;;26.33;17.43;;;18.10;99.90;;;;;;5074642;28;20199;-77
2021/08/23 01:34:49;;;;;;;32.47;18.17;;;18.20;99.90;;;;;;5074553;28;20164;-80
2021/08/23 01:37:16;;;;;;;30.33;17.87;;;18.10;99.90;;;;;;5091602;28;20167;-78
2021/08/23 01:39:43;;;;;;;30.20;17.80;;;18.10;99.90;;;;;;5090162;28;20172;-80
2021/08/23 01:42:09;;;;;;;24.27;16.80;;;18.20;99.90;;;;;;5078222;28;20464;-78
2021/08/23 01:44:35;;;;;;;20.23;16.37;;;18.10;99.90;;;;;;5099065;28;20156;-78
2021/08/23 01:47:00;;;;;;;24.07;16.80;;;18.10;99.90;;;;;;5099168;28;20263;-78
2021/08/23 01:49:26;;;;;;;27.73;17.43;;;18.10;99.90;;;;;;5097359;28;20247;-77
2021/08/23 01:51:53;;;;;;;25.70;17.60;;;18.10;99.90;;;;;;5098791;28;20228;-80
2021/08/23 01:54:20;;;;;;;30.33;18.10;;;18.20;99.90;;;;;;5098694;28;20152;-79
2021/08/23 01:56:46;;;;;;;26.77;17.10;;;18.10;99.90;;;;;;5072623;28;20156;-76
2021/08/23 01:59:15;;;;;;;29.30;18.17;;;18.10;99.90;;;;;;5082290;28;20172;-76
2021/08/23 02:01:55;;;;;;;28.70;17.93;;;18.20;99.90;;;;;;5084304;28;20172;-77
2021/08/23 02:07:42;;;;;;;27.20;15.97;;;18.20;99.90;;;;;;5074560;28;20191;-76
2021/08/23 02:10:08;;;;;;;21.73;15.40;;;18.20;99.90;;;;;;5056764;28;20184;-76
2021/08/23 02:12:34;;;;;;;25.07;16.23;;;18.20;99.90;;;;;;5073766;28;20200;-75
2021/08/23 02:14:59;;;;;;;26.73;16.70;;;18.30;99.90;;;;;;5073472;28;20219;-78
2021/08/23 02:17:25;;;;;;;27.20;16.30;;;18.30;99.90;;;;;;5073452;28;20169;-77
2021/08/23 02:19:51;;;;;;;25.93;15.27;;;18.30;99.90;;;;;;5073134;28;20173;-75
2021/08/23 02:22:16;;;;;;;26.93;16.13;;;18.30;99.90;;;;;;5055410;28;20176;-81
2021/08/23 02:24:42;;;;;;;23.17;15.37;;;18.40;99.90;;;;;;5056801;28;20540;-79
2021/08/23 02:27:08;;;;;;;24.40;14.90;;;18.50;99.90;;;;;;5073463;28;20242;-76
2021/08/23 02:29:33;;;;;;;22.97;14.77;;;18.40;99.90;;;;;;5072849;28;20200;-76
2021/08/23 02:31:59;;;;;;;29.50;14.27;;;18.30;99.90;;;;;;5073013;28;20180;-80
2021/08/23 02:34:25;;;;;;;19.93;13.50;;;18.30;99.90;;;;;;5055224;28;20219;-76
2021/08/23 02:36:50;;;;;;;26.00;14.57;;;18.20;99.90;;;;;;5073058;28;20646;-78
2021/08/23 02:39:16;;;;;;;20.40;14.37;;;18.20;99.90;;;;;;5073139;28;20698;-81
2021/08/23 02:41:41;;;;;;;22.73;13.93;;;18.30;99.90;;;;;;5073416;28;20200;-77
2021/08/23 02:44:07;;;;;;;19.07;13.77;;;18.20;99.90;;;;;;5076591;28;20191;-76
2021/08/23 02:46:33;;;;;;;24.83;14.07;;;18.30;99.90;;;;;;5078593;28;20169;-78
2021/08/23 02:48:58;;;;;;;21.53;13.73;;;18.20;99.90;;;;;;5055462;28;20223;-79
2021/08/23 02:51:24;;;;;;;21.27;12.43;;;18.20;99.90;;;;;;5072630;28;20616;-77
2021/08/23 02:53:49;;;;;;;19.63;12.20;;;18.20;99.90;;;;;;5072275;28;20241;-81
2021/08/23 02:56:15;;;;;;;20.63;12.40;;;18.20;99.90;;;;;;5072937;28;20649;-77
2021/08/23 02:58:41;;;;;;;17.00;11.23;;;18.30;99.90;;;;;;5073065;28;20161;-77
2021/08/23 03:01:06;;;;;;;19.60;11.90;;;18.10;99.90;;;;;;5072709;28;20191;-77
2021/08/23 03:03:35;;;;;;;21.37;11.73;;;18.10;99.90;;;;;;5072907;28;20173;-79
2021/08/23 03:06:01;;;;;;;22.60;11.80;;;18.10;99.90;;;;;;5073443;28;20255;-75
2021/08/23 03:08:26;;;;;;;20.43;10.77;;;18.10;99.90;;;;;;5077533;28;20180;-75
2021/08/23 03:10:54;;;;;;;15.80;10.17;;;18.10;99.90;;;;;;5076079;28;20173;-74
2021/08/23 03:13:21;;;;;;;18.43;10.30;;;18.10;99.90;;;;;;5073066;28;20191;-76
2021/08/23 03:15:47;;;;;;;19.10;11.20;;;18.20;99.90;;;;;;5072838;28;20259;-78
2021/08/23 03:18:13;;;;;;;18.60;10.70;;;18.20;99.90;;;;;;5072582;28;20636;-76
2021/08/23 03:20:39;;;;;;;22.90;11.00;;;18.30;99.90;;;;;;5072942;28;20173;-79
2021/08/23 03:23:04;;;;;;;19.00;11.13;;;18.20;99.90;;;;;;5054609;28;20297;-79
2021/08/23 03:25:30;;;;;;;17.83;10.83;;;18.20;99.90;;;;;;5072839;28;20570;-75
2021/08/23 03:27:56;;;;;;;19.90;10.83;;;18.20;99.90;;;;;;5072551;28;20586;-79
2021/08/23 03:30:21;;;;;;;17.00;10.37;;;18.10;99.90;;;;;;5072782;28;20536;-75
2021/08/23 03:32:47;;;;;;;19.23;10.50;;;18.10;99.90;;;;;;5072477;28;20148;-76
2021/08/23 03:35:13;;;;;;;16.33;10.20;;;18.10;99.90;;;;;;5072734;28;20172;-74
2021/08/23 03:37:38;;;;;;;18.40;11.47;;;18.10;99.90;;;;;;5054217;28;20171;-76
2021/08/23 03:40:04;;;;;;;16.10;9.67;;;18.00;99.90;;;;;;5072454;28;20661;-75
2021/08/23 03:42:30;;;;;;;19.77;10.30;;;18.00;99.90;;;;;;5072522;28;20173;-78
2021/08/23 03:44:56;;;;;;;17.97;10.70;;;18.10;99.90;;;;;;5072361;28;20173;-79
2021/08/23 03:47:22;;;;;;;18.23;11.10;;;18.10;99.90;;;;;;5054270;28;20667;-78
2021/08/23 03:49:48;;;;;;;15.23;10.50;;;18.00;99.90;;;;;;5054374;28;20208;-78
2021/08/23 03:52:14;;;;;;;17.17;11.47;;;18.00;99.90;;;;;;5072411;28;20248;-81
2021/08/23 03:54:39;;;;;;;17.17;11.73;;;18.00;99.90;;;;;;5072548;28;20184;-77
2021/08/23 03:57:05;;;;;;;22.63;12.53;;;17.90;99.90;;;;;;5072424;28;20195;-76
2021/08/23 03:59:31;;;;;;;15.10;11.83;;;18.00;99.90;;;;;;5072319;28;20642;-76
2021/08/23 04:01:56;;;;;;;19.67;12.97;;;18.00;99.90;;;;;;5072741;28;20525;-74
2021/08/23 04:04:22;;;;;;;20.50;13.50;;;18.00;99.90;;;;;;5075915;28;20169;-80
2021/08/23 04:06:48;;;;;;;22.40;13.27;;;18.20;99.90;;;;;;5057872;28;20632;-75
2021/08/23 04:09:13;;;;;;;19.63;14.37;;;18.00;99.90;;;;;;5075777;28;20220;-80
2021/08/23 04:11:39;;;;;;;18.53;15.03;;;18.10;99.90;;;;;;5057831;28;20168;-75
2021/08/23 04:14:05;;;;;;;18.53;15.47;;;18.10;99.90;;;;;;5075393;28;20179;-75
2021/08/23 04:16:31;;;;;;;22.27;16.40;;;18.00;99.90;;;;;;5075723;28;20640;-79
2021/08/23 04:18:57;;;;;;;23.53;17.83;;;18.00;99.90;;;;;;5075708;28;20647;-79
2021/08/23 04:21:22;;;;;;;23.93;19.63;;;18.00;99.90;;;;;;5075840;28;20172;-75
2021/08/23 04:23:48;;;;;;;26.03;20.43;;;17.90;99.90;;;;;;5075712;28;20161;-81
2021/08/23 04:26:13;;;;;;;24.20;19.50;;;17.90;99.90;;;;;;5075611;28;20173;-75
2021/08/23 04:28:39;;;;;;;26.43;22.87;;;17.80;99.90;;;;;;5075543;28;20672;-79
2021/08/23 04:31:05;;;;;;;25.37;22.27;;;17.80;99.90;;;;;;5075254;28;20160;-75
2021/08/23 04:33:30;;;;;;;27.03;23.50;;;17.90;99.90;;;;;;5075346;28;20521;-75
2021/08/23 04:35:56;;;;;;;29.03;23.63;;;18.00;99.90;;;;;;5075490;28;20176;-76
2021/08/23 04:38:22;;;;;;;33.47;27.07;;;18.00;99.90;;;;;;5075219;28;20153;-75
2021/08/23 04:40:48;;;;;;;29.90;26.17;;;17.90;99.90;;;;;;5075461;28;20663;-75
2021/08/23 04:43:14;;;;;;;30.10;25.43;;;17.90;99.90;;;;;;5075022;28;20169;-79
2021/08/23 04:45:40;;;;;;;29.87;26.67;;;17.90;99.90;;;;;;5075226;28;20164;-76
2021/08/23 04:48:06;;;;;;;32.87;28.70;;;17.90;99.90;;;;;;5075059;28;20701;-75
2021/08/23 04:50:31;;;;;;;31.37;27.97;;;17.90;99.90;;;;;;5074986;28;20193;-76
2021/08/23 04:52:57;;;;;;;31.50;28.20;;;17.80;99.90;;;;;;5057113;28;20529;-76
2021/08/23 04:55:23;;;;;;;33.70;30.10;;;17.80;99.90;;;;;;5074943;28;20178;-80
2021/08/23 04:57:48;;;;;;;33.10;28.77;;;17.80;99.90;;;;;;5075232;28;20540;-77
2021/08/23 05:00:14;;;;;;;32.00;28.77;;;17.80;99.90;;;;;;5075188;28;20172;-76
2021/08/23 05:02:40;;;;;;;32.10;28.63;;;17.80;99.90;;;;;;5057430;28;20176;-76
2021/08/23 05:05:06;;;;;;;32.50;29.03;;;17.80;99.90;;;;;;5074759;28;20168;-78
2021/08/23 05:07:32;;;;;;;31.90;28.60;;;17.80;99.90;;;;;;5057345;28;20176;-79
2021/08/23 05:09:57;;;;;;;32.50;28.83;;;17.80;99.90;;;;;;5082024;28;20224;-75
2021/08/23 05:12:23;;;;;;;31.43;28.27;;;17.80;99.90;;;;;;5080342;28;20173;-77
2021/08/23 05:14:51;;;;;;;32.87;29.47;;;17.80;99.90;;;;;;5078882;28;20228;-77
2021/08/23 05:17:16;;;;;;;32.00;27.57;;;17.80;99.90;;;;;;5078641;28;20195;-77
2021/08/23 05:19:44;;;;;;;33.17;29.73;;;17.80;99.90;;;;;;5075626;28;20560;-76
2021/08/23 05:22:09;;;;;;;32.00;28.57;;;17.80;99.90;;;;;;5075053;28;20172;-77
2021/08/23 05:24:35;;;;;;;31.23;27.93;;;17.80;99.90;;;;;;5075845;28;20187;-76
2021/08/23 05:27:01;;;;;;;31.97;28.57;;;17.80;99.90;;;;;;5074946;28;20192;-77
2021/08/23 05:29:26;;;;;;;32.50;29.27;;;17.80;99.90;;;;;;5077204;28;20548;-76
2021/08/23 05:31:52;;;;;;;30.93;27.73;;;17.80;99.90;;;;;;5078038;28;20205;-79
2021/08/23 05:34:18;;;;;;;29.87;26.77;;;17.80;99.90;;;;;;5080143;28;20169;-76
2021/08/23 05:36:43;;;;;;;30.37;27.27;;;17.80;99.90;;;;;;5095098;28;20165;-74
2021/08/23 05:39:10;;;;;;;28.37;25.47;;;17.80;99.90;;;;;;5090742;28;20183;-76
2021/08/23 05:41:36;;;;;;;29.97;26.53;;;17.80;99.90;;;;;;5084505;28;20208;-80
2021/08/23 05:44:07;;;;;;;31.10;27.83;;;17.80;99.90;;;;;;5077499;28;20161;-78
2021/08/23 05:46:33;;;;;;;29.17;26.17;;;17.80;99.90;;;;;;5075649;28;20165;-78
2021/08/23 05:48:59;;;;;;;27.43;24.67;;;17.80;99.90;;;;;;5076037;28;20683;-79
2021/08/23 05:51:24;;;;;;;31.10;27.90;;;17.80;99.90;;;;;;5075703;28;20539;-81
2021/08/23 05:53:50;;;;;;;32.23;28.83;;;17.80;99.90;;;;;;5076745;28;20172;-78
2021/08/23 05:56:16;;;;;;;32.33;29.03;;;17.80;99.90;;;;;;5058073;28;20165;-76
2021/08/23 05:58:41;;;;;;;33.93;30.43;;;17.80;99.90;;;;;;5076801;28;20169;-83
2021/08/23 06:01:10;;;;;;;31.70;28.33;;;17.90;99.90;;;;;;5061450;28;20196;-76
2021/08/23 06:03:35;;;;;;;31.17;28.00;;;17.80;99.90;;;;;;5084987;28;20170;-81
2021/08/23 06:06:05;;;;;;;31.97;28.40;;;17.70;99.90;;;;;;5086804;28;20172;-76
2021/08/23 06:08:34;;;;;;;30.20;27.03;;;17.70;99.90;;;;;;5080047;28;20200;-77
2021/08/23 06:11:01;;;;;;;27.50;24.60;;;17.70;99.90;;;;;;5079709;28;20613;-77
2021/08/23 06:13:27;;;;;;;28.67;25.57;;;17.70;99.90;;;;;;5082817;28;20183;-78
2021/08/23 06:15:55;;;;;;;26.67;23.90;;;17.60;99.90;;;;;;5081224;28;20523;-80
2021/08/23 06:18:21;;;;;;;27.57;24.27;;;17.70;99.90;;;;;;5061893;28;20267;-79
2021/08/23 06:20:49;;;;;;;24.73;21.90;;;17.70;99.90;;;;;;5075764;28;20184;-81
2021/08/23 06:23:15;;;;;;;26.77;23.67;;;17.60;99.90;;;;;;5076093;28;20180;-77
2021/08/23 06:25:40;;;;;;;26.27;22.67;;;17.60;99.90;;;;;;5074326;28;20172;-78
2021/08/23 06:28:07;;;;;;;24.93;22.20;;;17.60;99.90;;;;;;5057232;28;20790;-77
2021/08/23 06:30:34;;;;;;;27.97;21.97;;;17.60;99.90;;;;;;5079333;28;20199;-79
2021/08/23 06:33:01;;;;;;;24.63;21.90;;;17.60;99.90;;;;;;5079115;28;20157;-79
2021/08/23 06:35:26;;;;;;;27.53;20.60;;;17.70;99.90;;;;;;5076340;28;20334;-80
2021/08/23 06:37:52;;;;;;;24.20;21.70;;;17.70;99.90;;;;;;5061571;28;20172;-80
2021/08/23 06:40:18;;;;;;;27.60;22.70;;;17.70;99.90;;;;;;5077659;28;20255;-78
2021/08/23 06:42:43;;;;;;;25.77;21.97;;;17.70;99.90;;;;;;5078550;28;20169;-80
2021/08/23 06:45:09;;;;;;;25.83;21.77;;;17.70;99.90;;;;;;5074789;28;20570;-78
2021/08/23 06:47:36;;;;;;;22.07;19.20;;;17.70;99.90;;;;;;5075244;28;20200;-79
2021/08/23 06:50:02;;;;;;;24.23;20.37;;;17.70;99.90;;;;;;5076543;28;20226;-80
2021/08/23 06:52:28;;;;;;;23.53;20.03;;;17.70;99.90;;;;;;5064835;28;20271;-80
2021/08/23 06:54:54;;;;;;;20.50;18.30;;;17.80;99.90;;;;;;5061792;28;20230;-81
2021/08/23 06:57:19;;;;;;;21.83;18.37;;;17.70;99.90;;;;;;5074492;28;20172;-80
2021/08/23 06:59:45;;;;;;;20.30;18.17;;;17.70;99.90;;;;;;5055709;28;20208;-80
2021/08/23 07:02:10;;;;;;;20.20;17.90;;;17.80;99.90;;;;;;5077104;28;20660;-81
2021/08/23 07:04:36;;;;;;;23.83;18.80;;;17.70;99.90;;;;;;5076760;28;20179;-78
2021/08/23 07:07:03;;;;;;;23.10;19.83;;;17.70;99.90;;;;;;5079446;28;20176;-79
2021/08/23 07:09:29;;;;;;;23.13;19.47;;;17.60;99.90;;;;;;5082254;28;20216;-80
2021/08/23 07:11:56;;;;;;;22.37;19.97;;;17.70;99.90;;;;;;5076619;28;21013;-78
2021/08/23 07:14:21;;;;;;;22.77;19.70;;;17.70;99.90;;;;;;5096403;28;20164;-78
2021/08/23 07:16:47;;;;;;;24.77;19.40;;;17.70;99.90;;;;;;5096604;28;20199;-78
2021/08/23 07:19:13;;;;;;;25.53;19.50;;;17.70;99.90;;;;;;5078698;28;20174;-77
2021/08/23 07:21:39;;;;;;;24.60;18.80;;;17.70;99.90;;;;;;5079445;28;20175;-78
2021/08/23 07:24:06;;;;;;;23.17;19.07;;;17.70;99.90;;;;;;5093770;28;20484;-78
2021/08/23 07:26:34;;;;;;;23.87;19.67;;;17.60;99.90;;;;;;5069507;28;20170;-78
2021/08/23 07:29:03;;;;;;;26.27;19.93;;;17.70;99.90;;;;;;5087539;28;20203;-78
2021/08/23 07:31:32;;;;;;;28.47;21.97;;;17.70;99.90;;;;;;5075401;28;20157;-78
2021/08/23 07:33:57;;;;;;;26.70;20.97;;;17.50;99.90;;;;;;5058735;28;20202;-79
2021/08/23 07:36:23;;;;;;;27.43;22.13;;;17.50;99.90;;;;;;5077739;28;20161;-78
2021/08/23 07:38:48;;;;;;;27.57;22.13;;;17.50;99.90;;;;;;5076313;28;20177;-77
2021/08/23 07:41:14;;;;;;;28.23;22.10;;;17.50;99.90;;;;;;5077754;28;20172;-80
2021/08/23 07:43:40;;;;;;;27.97;22.43;;;17.60;99.90;;;;;;5081731;28;20176;-78
2021/08/23 07:46:08;;;;;;;30.07;22.77;;;17.50;99.90;;;;;;5086512;28;20179;-77
2021/08/23 07:48:33;;;;;;;28.93;23.53;;;17.60;99.90;;;;;;5088288;28;20236;-77
2021/08/23 07:50:59;;;;;;;30.07;24.20;;;17.40;99.90;;;;;;5083891;28;20510;-78
2021/08/23 07:53:25;;;;;;;34.50;24.53;;;17.40;99.90;;;;;;5083951;28;20169;-79
2021/08/23 07:55:51;;;;;;;36.70;24.93;;;17.40;99.90;;;;;;5059761;28;20169;-78
2021/08/23 07:58:16;;;;;;;32.93;25.60;;;17.30;99.90;;;;;;5077538;28;20171;-80
2021/08/23 08:00:42;;;;;;;34.67;27.17;;;17.30;99.90;;;;;;5076769;28;20168;-81
2021/08/23 08:03:08;;;;;;;38.13;30.93;;;17.30;99.90;;;;;;5077742;28;20640;-81
2021/08/23 08:05:37;;;;;;;38.37;30.30;;;17.30;99.90;;;;;;5080766;28;20194;-78
2021/08/23 08:08:08;;;;;;;38.70;29.77;;;17.40;99.90;;;;;;5084782;28;20160;-76
2021/08/23 08:10:38;;;;;;;34.90;27.57;;;17.40;99.90;;;;;;5078228;28;20191;-80
2021/08/23 08:13:04;;;;;;;32.13;24.83;;;17.40;99.90;;;;;;5076981;28;20191;-78
2021/08/23 08:15:30;;;;;;;26.87;23.03;;;17.40;99.90;;;;;;5076558;28;20180;-77
2021/08/23 08:17:56;;;;;;;30.47;24.17;;;17.40;99.90;;;;;;5058281;28;20250;-80
2021/08/23 08:20:21;;;;;;;27.03;22.60;;;17.50;99.90;;;;;;5076658;28;20168;-80
2021/08/23 08:22:48;;;;;;;29.27;23.10;;;17.60;99.90;;;;;;5076389;28;20179;-79
2021/08/23 08:25:14;;;;;;;25.73;22.10;;;17.70;99.90;;;;;;5076218;28;20280;-78
2021/08/23 08:27:40;;;;;;;25.60;22.30;;;17.70;99.90;;;;;;5076098;28;20188;-80
2021/08/23 08:30:09;;;;;;;25.30;21.20;;;17.70;99.90;;;;;;5076494;28;20668;-77
2021/08/23 08:32:34;;;;;;;25.83;21.87;;;17.80;99.90;;;;;;5084746;28;20168;-76
2021/08/23 08:35:00;;;;;;;25.50;21.17;;;17.80;99.90;;;;;;5097662;28;20240;-77
2021/08/23 08:37:27;;;;;;;23.70;21.00;;;17.90;99.90;;;;;;5088192;28;20176;-79
2021/08/23 08:39:53;;;;;;;25.37;20.83;;;17.90;99.90;;;;;;5078937;28;20181;-79
2021/08/23 08:42:19;;;;;;;25.03;21.00;;;18.00;99.90;;;;;;5078894;28;20165;-78
2021/08/23 08:44:46;;;;;;;20.97;18.77;;;17.90;99.90;;;;;;5076248;28;20194;-82
2021/08/23 08:47:19;;;;;;;21.23;18.97;;;18.10;99.90;;;;;;5058201;28;20179;-80
2021/08/23 08:49:45;;;;;;;22.97;19.00;;;18.10;99.90;;;;;;5081101;28;20217;-78
2021/08/23 08:52:13;;;;;;;22.03;18.67;;;18.00;99.90;;;;;;5097711;28;20196;-77
2021/08/23 08:54:40;;;;;;;21.87;18.30;;;18.10;99.90;;;;;;5095629;28;20173;-77
2021/08/23 08:57:06;;;;;;;20.80;18.70;;;18.10;99.90;;;;;;5078452;28;20161;-78
2021/08/23 08:59:36;;;;;;;21.47;18.70;;;18.10;99.90;;;;;;5085714;28;20187;-78
2021/08/23 09:02:03;;;;;;;18.47;16.27;;;18.20;99.90;;;;;;5079201;28;20172;-78
2021/08/23 09:04:39;;;;;;;20.87;17.77;;;18.20;99.90;;;;;;5076510;28;20165;-77
2021/08/23 09:07:09;;;;;;;21.03;17.23;;;18.10;99.90;;;;;;5075772;28;20164;-80
2021/08/23 09:09:35;;;;;;;19.53;16.80;;;18.10;99.90;;;;;;5057290;28;20306;-77
2021/08/23 09:12:06;;;;;;;18.20;16.13;;;18.10;99.90;;;;;;5057242;28;20541;-77
2021/08/23 09:14:36;;;;;;;19.53;17.43;;;18.10;99.90;;;;;;5075571;28;20182;-79
2021/08/23 09:17:09;;;;;;;21.53;17.07;;;18.20;99.90;;;;;;5057651;28;20176;-78
2021/08/23 09:19:36;;;;;;;18.50;15.63;;;18.30;99.90;;;;;;5075203;28;20179;-79
2021/08/23 09:22:04;;;;;;;17.07;15.30;;;18.30;99.90;;;;;;5087713;28;20156;-78
2021/08/23 09:24:31;;;;;;;17.90;15.60;;;18.30;99.90;;;;;;5098996;28;20217;-76
2021/08/23 09:27:15;;;;;;;16.40;14.70;;;18.40;99.90;;;;;;5075942;28;20259;-80
2021/08/23 09:30:02;;;;;;;14.90;13.40;;;18.40;99.90;;;;;;5081194;28;20212;-79
2021/08/23 09:32:30;;;;;;;16.30;14.60;;;18.40;99.90;;;;;;5076411;28;20239;-81
2021/08/23 09:34:57;;;;;;;15.47;13.40;;;18.50;99.90;;;;;;5074697;28;20161;-80
2021/08/23 09:37:28;;;;;;;17.20;14.00;;;18.60;99.90;;;;;;5075216;28;20159;-78
2021/08/23 09:39:54;;;;;;;15.37;13.77;;;18.50;99.90;;;;;;5074495;28;20173;-78
2021/08/23 09:42:21;;;;;;;15.53;13.93;;;18.60;99.90;;;;;;5074177;28;20230;-77
2021/08/23 09:44:48;;;;;;;16.17;13.10;;;18.70;99.90;;;;;;5074306;28;20683;-77
2021/08/23 09:47:14;;;;;;;15.10;13.10;;;18.60;99.90;;;;;;5074784;28;20168;-78
2021/08/23 09:49:42;;;;;;;14.67;13.07;;;18.60;99.90;;;;;;5074546;28;20223;-78
2021/08/23 09:52:13;;;;;;;16.17;12.40;;;18.60;99.90;;;;;;5073896;28;20179;-77
2021/08/23 09:54:38;;;;;;;16.70;13.57;;;18.70;99.90;;;;;;5056469;28;20165;-78
2021/08/23 09:57:04;;;;;;;15.63;13.03;;;18.70;99.90;;;;;;5074181;28;20194;-77
2021/08/23 09:59:35;;;;;;;14.90;13.10;;;18.70;99.90;;;;;;5073954;28;20692;-78
2021/08/23 10:02:02;;;;;;;14.47;12.83;;;18.80;99.90;;;;;;5073893;28;20164;-78
2021/08/23 10:04:29;;;;;;;14.03;12.57;;;18.70;99.90;;;;;;5075462;28;20551;-78
2021/08/23 10:06:54;;;;;;;14.87;13.37;;;18.70;99.90;;;;;;5055782;28;20541;-79
2021/08/23 10:09:23;;;;;;;16.67;13.90;;;18.70;99.90;;;;;;5073561;28;20219;-80
2021/08/23 10:11:50;;;;;;;16.83;13.93;;;18.70;99.90;;;;;;5074303;28;20169;-82
2021/08/23 10:14:17;;;;;;;14.97;13.07;;;18.80;99.90;;;;;;5074365;28;20168;-81
2021/08/23 10:16:43;;;;;;;13.83;12.43;;;18.80;99.90;;;;;;5074082;28;20200;-78
2021/08/23 10:19:09;;;;;;;15.07;13.47;;;18.80;99.90;;;;;;5074231;28;20190;-78
2021/08/23 10:21:40;;;;;;;17.23;13.50;;;18.90;99.90;;;;;;5056440;28;20641;-80
2021/08/23 10:24:07;;;;;;;14.27;12.10;;;19.00;99.90;;;;;;5074583;28;20624;-79
2021/08/23 10:26:44;;;;;;;13.47;11.70;;;18.90;99.90;;;;;;5074176;28;20498;-81
2021/08/23 10:29:11;;;;;;;14.57;12.27;;;18.90;99.90;;;;;;5074037;28;20214;-82
2021/08/23 10:31:40;;;;;;;14.23;12.20;;;19.00;99.90;;;;;;5074106;28;20258;-79
2021/08/23 10:34:21;;;;;;;11.30;10.10;;;19.00;99.90;;;;;;5057249;28;20229;-78
2021/08/23 10:36:49;;;;;;;12.60;10.20;;;19.00;99.90;;;;;;5052112;28;20192;-79
2021/08/23 10:39:26;;;;;;;12.40;9.63;;;19.00;99.90;;;;;;5073980;28;20327;-80
2021/08/23 10:41:54;;;;;;;11.53;9.37;;;19.00;99.90;;;;;;5055389;28;20261;-79
2021/08/23 10:44:29;;;;;;;9.90;8.33;;;19.10;99.90;;;;;;5073488;28;20282;-79
2021/08/23 10:47:03;;;;;;;10.40;8.30;;;19.10;99.90;;;;;;5072946;28;20212;-80
2021/08/23 10:49:41;;;;;;;9.00;8.10;;;19.10;99.90;;;;;;5073335;28;20238;-79
2021/08/23 10:52:08;;;;;;;8.77;7.50;;;19.10;99.90;;;;;;5073226;28;20156;-81
2021/08/23 10:54:35;;;;;;;9.93;7.90;;;19.20;99.90;;;;;;5073616;28;20179;-78
2021/08/23 10:57:00;;;;;;;10.53;7.27;;;19.30;99.90;;;;;;5073467;28;20167;-79
2021/08/23 10:59:44;;;;;;;8.57;6.47;;;19.20;99.90;;;;;;5073383;28;20173;-78
2021/08/23 11:02:14;;;;;;;10.10;6.60;;;19.20;99.90;;;;;;5073398;28;20164;-80
2021/08/23 11:04:54;;;;;;;8.40;7.03;;;19.30;99.90;;;;;;5055544;28;20215;-80
2021/08/23 11:07:30;;;;;;;10.73;7.20;;;19.20;99.90;;;;;;5073377;28;20188;-79
2021/08/23 11:10:13;;;;;;;10.60;6.93;;;19.20;99.90;;;;;;5056042;28;20219;-79
2021/08/23 11:12:40;;;;;;;10.77;7.30;;;19.20;99.90;;;;;;5076377;28;20168;-80
2021/08/23 11:15:20;;;;;;;11.20;7.37;;;19.20;99.90;;;;;;5076896;28;20214;-77
2021/08/23 11:17:49;;;;;;;13.07;7.10;;;19.20;99.90;;;;;;5059923;28;20492;-78
2021/08/23 11:20:27;;;;;;;11.83;6.70;;;19.20;99.90;;;;;;5077714;28;20164;-79
2021/08/23 11:22:53;;;;;;;13.03;7.10;;;19.20;99.90;;;;;;5077518;28;20553;-78
2021/08/23 11:25:32;;;;;;;10.43;7.13;;;19.10;99.90;;;;;;5059279;28;20176;-78
2021/08/23 11:27:59;;;;;;;9.67;7.77;;;19.10;99.90;;;;;;5077728;28;20199;-78
2021/08/23 11:30:29;;;;;;;10.40;8.33;;;19.20;99.90;;;;;;5081295;28;20626;-77
2021/08/23 11:32:55;;;;;;;9.63;7.57;;;19.20;99.90;;;;;;5067247;28;20174;-78
2021/08/23 11:35:21;;;;;;;9.00;7.63;;;19.30;99.90;;;;;;5094382;28;20199;-77
2021/08/23 11:37:53;;;;;;;10.07;7.83;;;19.30;99.90;;;;;;5099325;28;20177;-77
2021/08/23 11:40:19;;;;;;;10.13;8.03;;;19.30;99.90;;;;;;5099748;28;20186;-81
2021/08/23 11:42:45;;;;;;;11.40;7.77;;;19.30;99.90;;;;;;5101070;28;20173;-77
2021/08/23 11:45:23;;;;;;;13.70;7.83;;;19.40;99.90;;;;;;5099945;28;20199;-78
2021/08/23 11:47:52;;;;;;;13.37;7.77;;;19.50;99.80;;;;;;5086689;28;20585;-78
2021/08/23 11:50:40;;;;;;;10.50;8.07;;;19.60;99.60;;;;;;5084319;28;20585;-80
2021/08/23 11:53:11;;;;;;;10.40;7.40;;;19.60;99.30;;;;;;5080177;28;20613;-80
2021/08/23 11:55:39;;;;;;;11.63;6.80;;;19.70;98.70;;;;;;5077121;28;20165;-77
2021/08/23 11:58:10;;;;;;;10.93;8.23;;;19.60;98.60;;;;;;5078589;28;20236;-77
2021/08/23 12:00:39;;;;;;;10.60;8.13;;;19.60;97.50;;;;;;5069267;28;20180;-79
2021/08/23 12:03:08;;;;;;;11.73;8.33;;;19.60;97.40;;;;;;5072665;28;20189;-80
2021/08/23 12:06:01;;;;;;;12.27;8.47;;;19.60;97.30;;;;;;5100595;28;20220;-78
2021/08/23 12:08:30;;;;;;;12.97;8.37;;;19.60;97.50;;;;;;5073064;28;20677;-78
2021/08/23 12:10:58;;;;;;;10.03;7.60;;;19.60;97.00;;;;;;5078744;28;20169;-80
2021/08/23 12:13:26;;;;;;;10.63;7.53;;;19.60;97.30;;;;;;5076052;28;20168;-79
2021/08/23 12:15:57;;;;;;;10.83;7.27;;;19.70;97.20;;;;;;5076505;28;20169;-80
2021/08/23 12:18:51;;;;;;;9.33;6.83;;;19.60;97.40;;;;;;5076315;28;20508;-79
2021/08/23 12:21:19;;;;;;;9.83;7.40;;;19.60;97.40;;;;;;5056602;28;20192;-79
2021/08/23 12:23:50;;;;;;;9.10;6.33;;;19.70;97.10;;;;;;5075183;28;20245;-79
2021/08/23 12:26:23;;;;;;;8.80;6.10;;;19.60;97.20;;;;;;5062998;28;20172;-78
2021/08/23 12:28:51;;;;;;;10.93;6.83;;;19.60;96.20;;;;;;5092667;28;20220;-77
2021/08/23 12:31:18;;;;;;;9.90;6.50;;;19.70;96.40;;;;;;5091901;28;20232;-79
2021/08/23 12:33:44;;;;;;;9.60;6.67;;;19.80;95.80;;;;;;5076649;28;20164;-80